Time;durP1;ratioP1;P1;durP2;ratioP2;P2;SDS_P1;SDS_P2;PMS_P1;PMS_P2;Temp;Humidity;BMP_temperature;BMP_pressure;BME280_temperature;BME280_humidity;BME280_pressure;Samples;Min_cycle;Max_cycle;Signal;HPM_P1;HPM_P2
2023/11/20 00:00:14;;;;;;;0.30;0.30;;;;;;;;;;6207852;23;20277;-91
2023/11/20 00:03:19;;;;;;;14.25;1.10;;;;;;;;;;6208218;23;20246;-89
2023/11/20 00:06:26;;;;;;;0.40;0.40;;;;;;;;;;6208168;23;20171;-91
2023/11/20 00:09:31;;;;;;;0.40;0.40;;;;;;;;;;6208877;23;20194;-92
2023/11/20 00:12:36;;;;;;;0.57;0.57;;;;;;;;;;6205736;23;20261;-90
2023/11/20 00:15:41;;;;;;;0.30;0.30;;;;;;;;;;6206304;23;20193;-92
2023/11/20 00:18:46;;;;;;;0.55;0.55;;;;;;;;;;6210199;23;20166;-91
2023/11/20 00:21:53;;;;;;;0.40;0.40;;;;;;;;;;6207011;23;20652;-91
2023/11/20 00:24:58;;;;;;;1.00;0.52;;;;;;;;;;6207513;23;20236;-88
2023/11/20 00:28:03;;;;;;;0.52;0.52;;;;;;;;;;6207233;23;20256;-92
2023/11/20 00:31:13;;;;;;;0.43;0.43;;;;;;;;;;6206868;23;20171;-91
2023/11/20 00:34:18;;;;;;;0.57;0.57;;;;;;;;;;6207676;23;20195;-91
2023/11/20 00:37:24;;;;;;;0.30;0.30;;;;;;;;;;6207968;23;20171;-90
2023/11/20 00:40:30;;;;;;;0.30;0.30;;;;;;;;;;6206940;23;20241;-89
2023/11/20 00:43:36;;;;;;;0.50;0.50;;;;;;;;;;6207236;23;20163;-90
2023/11/20 00:46:43;;;;;;;0.43;0.43;;;;;;;;;;6208141;23;20175;-90
2023/11/20 00:49:49;;;;;;;3.38;1.40;;;;;;;;;;6209060;23;20246;-92
2023/11/20 00:52:55;;;;;;;0.30;0.30;;;;;;;;;;6210057;23;20362;-89
2023/11/20 00:56:00;;;;;;;1.48;0.93;;;;;;;;;;6226783;23;20175;-91
2023/11/20 00:59:05;;;;;;;0.60;0.60;;;;;;;;;;6215663;23;20183;-92
2023/11/20 01:02:10;;;;;;;0.60;0.50;;;;;;;;;;6209351;23;20171;-90
2023/11/20 01:05:16;;;;;;;0.50;0.50;;;;;;;;;;6209227;23;20516;-92
2023/11/20 01:08:22;;;;;;;6.60;1.30;;;;;;;;;;6208827;23;20171;-92
2023/11/20 01:11:27;;;;;;;0.40;0.40;;;;;;;;;;6208729;23;20626;-91
2023/11/20 01:14:32;;;;;;;0.60;0.60;;;;;;;;;;6208868;23;20195;-91
2023/11/20 01:17:37;;;;;;;0.28;0.28;;;;;;;;;;6206566;23;20225;-92
2023/11/20 01:20:42;;;;;;;1.80;1.02;;;;;;;;;;6207408;23;20171;-91
2023/11/20 01:23:48;;;;;;;0.30;0.30;;;;;;;;;;6208011;23;20162;-92
2023/11/20 01:26:56;;;;;;;0.47;0.47;;;;;;;;;;6209030;23;20170;-91
2023/11/20 01:30:01;;;;;;;0.30;0.30;;;;;;;;;;6208461;23;20222;-92
2023/11/20 01:33:07;;;;;;;0.43;0.43;;;;;;;;;;6207948;23;20260;-91
2023/11/20 01:36:15;;;;;;;0.32;0.32;;;;;;;;;;6208856;23;20210;-91
2023/11/20 01:39:21;;;;;;;0.90;0.73;;;;;;;;;;6209092;23;20226;-91
2023/11/20 01:42:27;;;;;;;5.32;0.77;;;;;;;;;;6208454;23;20171;-92
2023/11/20 01:45:33;;;;;;;1.55;0.82;;;;;;;;;;6209906;23;20170;-93
2023/11/20 01:48:38;;;;;;;0.30;0.30;;;;;;;;;;6208432;23;20175;-92
2023/11/20 01:51:44;;;;;;;0.57;0.57;;;;;;;;;;6209160;23;20170;-92
2023/11/20 01:54:50;;;;;;;0.50;0.50;;;;;;;;;;6209378;23;20274;-90
2023/11/20 01:57:56;;;;;;;0.60;0.60;;;;;;;;;;6207817;23;20627;-91
2023/11/20 02:01:02;;;;;;;0.38;0.38;;;;;;;;;;6209173;22;20206;-93
2023/11/20 02:04:07;;;;;;;0.98;0.75;;;;;;;;;;6209532;22;20249;-89
2023/11/20 02:07:13;;;;;;;0.40;0.40;;;;;;;;;;6208592;23;20211;-93
2023/11/20 02:10:20;;;;;;;0.30;0.30;;;;;;;;;;6209008;23;20195;-92
2023/11/20 02:13:25;;;;;;;0.30;0.30;;;;;;;;;;6210997;23;20223;-92
2023/11/20 02:16:30;;;;;;;0.52;0.52;;;;;;;;;;6208742;23;20195;-88
2023/11/20 02:19:35;;;;;;;4.60;0.80;;;;;;;;;;6210973;22;20162;-90
2023/11/20 02:22:40;;;;;;;0.40;0.40;;;;;;;;;;6208683;23;20682;-88
2023/11/20 02:25:47;;;;;;;1.65;0.52;;;;;;;;;;6210564;23;20171;-91
2023/11/20 02:28:54;;;;;;;0.40;0.40;;;;;;;;;;6211139;23;20168;-92
2023/11/20 02:32:01;;;;;;;0.30;0.30;;;;;;;;;;6209832;23;20179;-91
2023/11/20 02:35:06;;;;;;;0.30;0.30;;;;;;;;;;6211409;23;20174;-89
2023/11/20 02:38:11;;;;;;;0.77;0.77;;;;;;;;;;6208819;23;20163;-90
2023/11/20 02:41:17;;;;;;;0.35;0.35;;;;;;;;;;6209684;23;20168;-90
2023/11/20 02:44:22;;;;;;;0.80;0.80;;;;;;;;;;6209237;23;20179;-88
2023/11/20 02:47:28;;;;;;;1.33;0.85;;;;;;;;;;6210574;22;20151;-88
2023/11/20 02:50:34;;;;;;;0.63;0.63;;;;;;;;;;6209960;22;20172;-91
2023/11/20 02:53:40;;;;;;;0.43;0.43;;;;;;;;;;6209397;23;20265;-90
2023/11/20 02:56:46;;;;;;;0.35;0.35;;;;;;;;;;6209288;23;20155;-90
2023/11/20 02:59:51;;;;;;;0.50;0.50;;;;;;;;;;6208952;23;20163;-91
2023/11/20 03:02:57;;;;;;;0.30;0.30;;;;;;;;;;6208795;23;20501;-89
2023/11/20 03:06:03;;;;;;;0.85;0.82;;;;;;;;;;6208742;23;20214;-89
2023/11/20 03:09:09;;;;;;;0.50;0.50;;;;;;;;;;6208499;23;20218;-89
2023/11/20 03:12:14;;;;;;;0.40;0.40;;;;;;;;;;6208079;23;20167;-93
2023/11/20 03:15:20;;;;;;;0.40;0.40;;;;;;;;;;6208246;22;20233;-89
2023/11/20 03:18:26;;;;;;;0.40;0.40;;;;;;;;;;6207629;22;20250;-91
2023/11/20 03:21:33;;;;;;;0.75;0.50;;;;;;;;;;6206924;23;20186;-89
2023/11/20 03:24:40;;;;;;;1.38;0.85;;;;;;;;;;6208933;23;20171;-92
2023/11/20 03:27:46;;;;;;;0.40;0.40;;;;;;;;;;6207908;23;20218;-91
2023/11/20 03:30:51;;;;;;;0.40;0.40;;;;;;;;;;6208290;22;20146;-89
2023/11/20 03:33:58;;;;;;;1.95;0.93;;;;;;;;;;6209357;22;20194;-89
2023/11/20 03:37:03;;;;;;;0.90;0.90;;;;;;;;;;6209956;23;20237;-88
2023/11/20 03:40:10;;;;;;;0.60;0.60;;;;;;;;;;6209270;23;20171;-89
2023/11/20 03:43:15;;;;;;;0.40;0.40;;;;;;;;;;6209211;23;20174;-88
2023/11/20 03:46:20;;;;;;;0.80;0.80;;;;;;;;;;6209802;23;20162;-91
2023/11/20 03:49:27;;;;;;;1.75;1.05;;;;;;;;;;6210786;22;20183;-91
2023/11/20 03:52:32;;;;;;;0.40;0.40;;;;;;;;;;6208868;23;20170;-90
2023/11/20 03:55:41;;;;;;;0.57;0.57;;;;;;;;;;6208465;23;20706;-89
2023/11/20 03:58:47;;;;;;;0.30;0.30;;;;;;;;;;6207596;23;20172;-89
2023/11/20 04:01:51;;;;;;;0.30;0.30;;;;;;;;;;6209345;22;20184;-90
2023/11/20 04:04:58;;;;;;;0.63;0.63;;;;;;;;;;6210310;22;20171;-89
2023/11/20 04:08:05;;;;;;;0.50;0.50;;;;;;;;;;6208647;23;20783;-91
2023/11/20 04:11:11;;;;;;;0.75;0.75;;;;;;;;;;6207901;23;20167;-91
2023/11/20 04:14:16;;;;;;;0.45;0.40;;;;;;;;;;6206449;23;20197;-91
2023/11/20 04:17:21;;;;;;;0.50;0.50;;;;;;;;;;6208178;22;20160;-92
2023/11/20 04:20:28;;;;;;;0.85;0.85;;;;;;;;;;6208273;23;20174;-94
2023/11/20 04:23:32;;;;;;;0.35;0.35;;;;;;;;;;6208552;23;20190;-93
2023/11/20 04:26:37;;;;;;;1.55;0.65;;;;;;;;;;6206785;23;20162;-90
2023/11/20 04:29:45;;;;;;;0.95;0.60;;;;;;;;;;6208314;22;20167;-89
2023/11/20 04:32:50;;;;;;;0.45;0.45;;;;;;;;;;6209638;23;20232;-90
2023/11/20 04:35:56;;;;;;;0.57;0.57;;;;;;;;;;6211636;23;20502;-92
2023/11/20 04:39:01;;;;;;;0.52;0.52;;;;;;;;;;6210742;23;20602;-93
2023/11/20 04:42:07;;;;;;;0.50;0.50;;;;;;;;;;6209424;23;20171;-89
2023/11/20 04:45:14;;;;;;;1.33;1.23;;;;;;;;;;6208849;23;20249;-88
2023/11/20 04:48:21;;;;;;;0.50;0.50;;;;;;;;;;6211717;22;20155;-90
2023/11/20 04:51:28;;;;;;;0.60;0.60;;;;;;;;;;6211962;23;20234;-90
2023/11/20 04:54:34;;;;;;;0.77;0.77;;;;;;;;;;6212325;23;20191;-90
2023/11/20 04:57:44;;;;;;;5.38;0.60;;;;;;;;;;6210247;23;20195;-91
2023/11/20 05:00:49;;;;;;;0.80;0.80;;;;;;;;;;6208427;23;20175;-90
2023/11/20 05:03:54;;;;;;;0.47;0.47;;;;;;;;;;6211223;22;20160;-90
2023/11/20 05:07:00;;;;;;;1.02;0.55;;;;;;;;;;6211387;22;20167;-90
2023/11/20 05:10:06;;;;;;;0.30;0.30;;;;;;;;;;6210267;23;20167;-91
2023/11/20 05:13:16;;;;;;;0.50;0.50;;;;;;;;;;6211387;22;20175;-92
2023/11/20 05:16:21;;;;;;;0.47;0.47;;;;;;;;;;6209776;23;20569;-90
2023/11/20 05:19:27;;;;;;;0.40;0.40;;;;;;;;;;6210677;22;20208;-88
2023/11/20 05:22:37;;;;;;;0.30;0.30;;;;;;;;;;6212714;23;20223;-90
2023/11/20 05:25:42;;;;;;;0.82;0.55;;;;;;;;;;6212074;23;20175;-91
2023/11/20 05:28:50;;;;;;;0.52;0.52;;;;;;;;;;6212745;22;20589;-89
2023/11/20 05:31:56;;;;;;;27.30;1.17;;;;;;;;;;6211361;23;20700;-88
2023/11/20 05:35:01;;;;;;;0.60;0.60;;;;;;;;;;6211235;22;20195;-91
2023/11/20 05:41:29;;;;;;;1.75;1.10;;;;;;;;;;6212049;23;20166;-89
2023/11/20 05:44:34;;;;;;;0.55;0.55;;;;;;;;;;6212231;23;20610;-88
2023/11/20 05:47:39;;;;;;;0.50;0.50;;;;;;;;;;6212313;23;20287;-91
2023/11/20 05:50:45;;;;;;;0.68;0.68;;;;;;;;;;6216877;23;20167;-91
2023/11/20 05:53:51;;;;;;;0.40;0.40;;;;;;;;;;6212201;22;20213;-89
2023/11/20 05:56:58;;;;;;;7.88;1.50;;;;;;;;;;6212589;22;20167;-90
2023/11/20 06:00:06;;;;;;;0.40;0.40;;;;;;;;;;6212992;23;20221;-90
2023/11/20 06:03:17;;;;;;;4.57;0.77;;;;;;;;;;6231224;22;20162;-92
2023/11/20 06:06:23;;;;;;;0.40;0.40;;;;;;;;;;6213083;22;20163;-90
2023/11/20 06:09:30;;;;;;;0.95;0.90;;;;;;;;;;6214394;22;20167;-88
2023/11/20 06:12:35;;;;;;;0.40;0.40;;;;;;;;;;6212587;22;20167;-93
2023/11/20 06:19:01;;;;;;;0.40;0.40;;;;;;;;;;6214628;23;20237;-89
2023/11/20 06:22:06;;;;;;;0.55;0.55;;;;;;;;;;6214138;22;20155;-90
2023/11/20 06:25:14;;;;;;;0.55;0.55;;;;;;;;;;6214418;22;20179;-90
2023/11/20 06:28:19;;;;;;;1.15;1.05;;;;;;;;;;6214423;23;20215;-89
2023/11/20 06:31:24;;;;;;;0.63;0.63;;;;;;;;;;6214314;23;20179;-90
2023/11/20 06:34:29;;;;;;;1.25;0.82;;;;;;;;;;6212029;22;20198;-89
2023/11/20 06:41:00;;;;;;;0.68;0.68;;;;;;;;;;6215178;23;20163;-88
2023/11/20 06:48:00;;;;;;;0.57;0.57;;;;;;;;;;6234091;22;20167;-91
2023/11/20 06:51:09;;;;;;;0.63;0.63;;;;;;;;;;6215781;23;20166;-91
2023/11/20 06:54:17;;;;;;;0.88;0.68;;;;;;;;;;6213025;23;20222;-92
2023/11/20 06:57:25;;;;;;;1.83;0.93;;;;;;;;;;6212611;22;20174;-88
2023/11/20 07:00:30;;;;;;;0.32;0.32;;;;;;;;;;6212025;23;20614;-90
2023/11/20 07:03:36;;;;;;;1.83;0.90;;;;;;;;;;6215411;23;20175;-89
2023/11/20 07:06:47;;;;;;;0.50;0.50;;;;;;;;;;6217011;23;20238;-90
2023/11/20 07:09:59;;;;;;;0.40;0.40;;;;;;;;;;6210838;23;20630;-89
2023/11/20 07:13:06;;;;;;;0.73;0.40;;;;;;;;;;6218547;22;20167;-89
2023/11/20 07:16:13;;;;;;;0.68;0.65;;;;;;;;;;6215112;23;20187;-89
2023/11/20 07:19:18;;;;;;;0.70;0.70;;;;;;;;;;6213961;23;20210;-91
2023/11/20 07:22:23;;;;;;;3.05;1.38;;;;;;;;;;6213803;23;20598;-90
2023/11/20 07:25:33;;;;;;;2.75;1.05;;;;;;;;;;6211848;23;20167;-89
2023/11/20 07:28:39;;;;;;;1.15;1.00;;;;;;;;;;6211261;23;20170;-91
2023/11/20 07:31:46;;;;;;;0.50;0.50;;;;;;;;;;6214714;23;20170;-90
2023/11/20 07:34:52;;;;;;;0.88;0.82;;;;;;;;;;6214524;23;20182;-91
2023/11/20 07:37:57;;;;;;;1.13;0.85;;;;;;;;;;6214708;23;20259;-91
2023/11/20 07:41:03;;;;;;;0.63;0.63;;;;;;;;;;6213267;23;20175;-90
2023/11/20 07:44:09;;;;;;;0.68;0.68;;;;;;;;;;6210929;23;20178;-91
2023/11/20 07:47:15;;;;;;;0.45;0.45;;;;;;;;;;6211212;22;20210;-90
2023/11/20 07:50:20;;;;;;;0.73;0.73;;;;;;;;;;6211491;23;20221;-90
2023/11/20 07:53:25;;;;;;;1.30;1.10;;;;;;;;;;6213887;23;20167;-92
2023/11/20 07:56:30;;;;;;;0.77;0.65;;;;;;;;;;6211159;23;20163;-89
2023/11/20 07:59:37;;;;;;;0.40;0.40;;;;;;;;;;6210355;23;20191;-93
2023/11/20 08:02:42;;;;;;;2.42;1.00;;;;;;;;;;6211470;22;20737;-90
2023/11/20 08:05:48;;;;;;;0.65;0.65;;;;;;;;;;6212407;23;20166;-89
2023/11/20 08:08:53;;;;;;;0.50;0.50;;;;;;;;;;6214384;23;20170;-89
2023/11/20 08:11:59;;;;;;;1.08;0.93;;;;;;;;;;6213858;23;20152;-91
2023/11/20 08:15:06;;;;;;;1.75;0.50;;;;;;;;;;6215401;22;20194;-90
2023/11/20 08:18:11;;;;;;;0.52;0.52;;;;;;;;;;6215590;22;20641;-92
2023/11/20 08:21:16;;;;;;;1.20;1.13;;;;;;;;;;6212985;23;20661;-90
2023/11/20 08:24:21;;;;;;;0.50;0.50;;;;;;;;;;6214680;23;20220;-90
2023/11/20 08:27:27;;;;;;;2.92;1.23;;;;;;;;;;6213655;23;20214;-91
2023/11/20 08:30:34;;;;;;;2.00;1.00;;;;;;;;;;6217796;22;20209;-91
2023/11/20 08:33:40;;;;;;;0.45;0.45;;;;;;;;;;6216499;22;20240;-89
2023/11/20 08:36:48;;;;;;;0.73;0.50;;;;;;;;;;6216287;23;20256;-89
2023/11/20 08:39:53;;;;;;;0.47;0.47;;;;;;;;;;6216330;22;20151;-90
2023/11/20 08:42:59;;;;;;;0.50;0.50;;;;;;;;;;6214056;23;20228;-93
2023/11/20 08:46:08;;;;;;;0.50;0.50;;;;;;;;;;6213783;23;20159;-91
2023/11/20 08:49:14;;;;;;;0.40;0.40;;;;;;;;;;6213313;22;20151;-89
2023/11/20 08:52:20;;;;;;;0.50;0.47;;;;;;;;;;6214506;23;20171;-90
2023/11/20 08:55:26;;;;;;;0.30;0.30;;;;;;;;;;6214251;23;20171;-91
2023/11/20 08:58:31;;;;;;;0.20;0.20;;;;;;;;;;6214551;22;20163;-92
2023/11/20 09:01:42;;;;;;;1.02;0.75;;;;;;;;;;6213975;23;20163;-92
2023/11/20 09:04:48;;;;;;;0.55;0.55;;;;;;;;;;6215638;23;20247;-92
2023/11/20 09:07:54;;;;;;;0.40;0.40;;;;;;;;;;6214408;23;20171;-90
2023/11/20 09:10:59;;;;;;;0.35;0.35;;;;;;;;;;6213997;23;20227;-89
2023/11/20 09:14:04;;;;;;;0.30;0.30;;;;;;;;;;6212043;23;20174;-88
2023/11/20 09:17:13;;;;;;;0.30;0.30;;;;;;;;;;6215690;22;20190;-93
2023/11/20 09:20:21;;;;;;;3.08;0.60;;;;;;;;;;6211810;23;20214;-89
2023/11/20 09:23:27;;;;;;;0.30;0.30;;;;;;;;;;6212518;23;20176;-89
2023/11/20 09:26:32;;;;;;;1.45;0.63;;;;;;;;;;6212705;23;20175;-90
2023/11/20 09:29:37;;;;;;;0.20;0.20;;;;;;;;;;6213793;22;20171;-89
2023/11/20 09:32:44;;;;;;;0.30;0.30;;;;;;;;;;6214250;22;20172;-91
2023/11/20 09:35:49;;;;;;;1.58;0.50;;;;;;;;;;6217091;23;20260;-90
2023/11/20 09:38:55;;;;;;;0.30;0.30;;;;;;;;;;6215754;22;20159;-89
2023/11/20 09:42:02;;;;;;;0.30;0.30;;;;;;;;;;6214296;22;20699;-91
2023/11/20 09:45:07;;;;;;;0.50;0.45;;;;;;;;;;6213685;23;20171;-90
2023/11/20 09:48:17;;;;;;;2.78;0.65;;;;;;;;;;6214974;23;20218;-92
2023/11/20 09:51:25;;;;;;;0.30;0.30;;;;;;;;;;6214200;23;20207;-90
2023/11/20 09:54:30;;;;;;;0.75;0.57;;;;;;;;;;6214032;22;20182;-92
2023/11/20 09:57:35;;;;;;;0.52;0.52;;;;;;;;;;6213285;23;20166;-89
2023/11/20 10:00:41;;;;;;;2.92;0.60;;;;;;;;;;6212697;22;20167;-87
2023/11/20 10:03:51;;;;;;;0.77;0.75;;;;;;;;;;6214169;22;20171;-88
2023/11/20 10:06:57;;;;;;;0.40;0.40;;;;;;;;;;6212628;22;20208;-90
2023/11/20 10:10:02;;;;;;;0.47;0.47;;;;;;;;;;6210901;22;20214;-92
2023/11/20 10:13:09;;;;;;;0.30;0.30;;;;;;;;;;6210544;23;20170;-91
2023/11/20 10:16:17;;;;;;;0.98;0.75;;;;;;;;;;6210774;23;20206;-89
2023/11/20 10:19:24;;;;;;;0.63;0.63;;;;;;;;;;6212209;22;20228;-90
2023/11/20 10:22:35;;;;;;;0.63;0.60;;;;;;;;;;6211008;23;20176;-92
2023/11/20 10:25:42;;;;;;;3.22;0.95;;;;;;;;;;6212767;23;20170;-92
2023/11/20 10:28:48;;;;;;;0.50;0.50;;;;;;;;;;6213680;23;20611;-90
2023/11/20 10:31:57;;;;;;;0.65;0.60;;;;;;;;;;6214331;22;20171;-93
2023/11/20 10:35:18;;;;;;;0.32;0.32;;;;;;;;;;6213308;22;20203;-91
2023/11/20 10:38:36;;;;;;;0.30;0.30;;;;;;;;;;6215972;23;20163;-86
2023/11/20 10:41:43;;;;;;;6.22;1.40;;;;;;;;;;6219509;23;20227;-91
2023/11/20 10:44:48;;;;;;;0.73;0.45;;;;;;;;;;6216422;23;20179;-91
2023/11/20 10:47:53;;;;;;;0.40;0.40;;;;;;;;;;6211172;23;20503;-91
2023/11/20 10:51:03;;;;;;;0.30;0.30;;;;;;;;;;6214248;23;20217;-91
2023/11/20 10:54:14;;;;;;;0.25;0.25;;;;;;;;;;6213412;23;20295;-90
2023/11/20 10:57:20;;;;;;;0.30;0.30;;;;;;;;;;6214376;23;20294;-92
2023/11/20 11:00:25;;;;;;;0.38;0.38;;;;;;;;;;6213858;23;20168;-92
2023/11/20 11:03:31;;;;;;;0.30;0.30;;;;;;;;;;6214174;23;20683;-92
2023/11/20 11:06:49;;;;;;;0.65;0.65;;;;;;;;;;6215759;23;20178;-93
2023/11/20 11:09:55;;;;;;;0.40;0.40;;;;;;;;;;6216157;23;20220;-93
2023/11/20 11:13:11;;;;;;;0.40;0.40;;;;;;;;;;6211834;23;20229;-89
2023/11/20 11:16:23;;;;;;;0.30;0.30;;;;;;;;;;6212910;22;20218;-91
2023/11/20 11:19:32;;;;;;;0.30;0.30;;;;;;;;;;6212275;23;20171;-93
2023/11/20 11:22:42;;;;;;;0.40;0.40;;;;;;;;;;6218688;23;20167;-92
2023/11/20 11:25:50;;;;;;;0.20;0.20;;;;;;;;;;6214850;23;20160;-89
2023/11/20 11:28:58;;;;;;;0.38;0.38;;;;;;;;;;6215020;22;20163;-90
2023/11/20 11:32:21;;;;;;;0.30;0.30;;;;;;;;;;6217066;22;20167;-90
2023/11/20 11:35:34;;;;;;;0.30;0.30;;;;;;;;;;6214971;23;20293;-93
2023/11/20 11:38:44;;;;;;;0.38;0.38;;;;;;;;;;6211612;23;20151;-93
2023/11/20 11:41:56;;;;;;;0.30;0.30;;;;;;;;;;6214900;22;20155;-93
2023/11/20 12:20:15;;;;;;;5.65;1.25;;;;;;;;;;6181078;22;20261;-90
2023/11/20 12:23:21;;;;;;;5.88;1.23;;;;;;;;;;6200922;23;20171;-89
2023/11/20 12:26:27;;;;;;;4.40;1.20;;;;;;;;;;6214115;23;20167;-91
2023/11/20 12:29:34;;;;;;;4.20;1.00;;;;;;;;;;6215759;23;20171;-92
2023/11/20 12:32:40;;;;;;;3.72;1.13;;;;;;;;;;6216729;22;20219;-92
2023/11/20 12:35:50;;;;;;;4.07;1.17;;;;;;;;;;6214113;22;20194;-90
2023/11/20 12:38:57;;;;;;;10.40;2.80;;;;;;;;;;6217186;22;20171;-91
2023/11/20 12:42:04;;;;;;;4.72;1.13;;;;;;;;;;6215204;22;20207;-90
2023/11/20 12:45:10;;;;;;;9.85;1.38;;;;;;;;;;6214400;23;20878;-91
2023/11/20 12:48:19;;;;;;;5.55;1.45;;;;;;;;;;6213163;23;20175;-90
2023/11/20 12:51:25;;;;;;;6.82;1.27;;;;;;;;;;6210263;22;20167;-91
2023/11/20 12:54:31;;;;;;;6.15;1.38;;;;;;;;;;6215473;23;20167;-90
2023/11/20 12:57:36;;;;;;;6.15;1.10;;;;;;;;;;6215986;22;20195;-90
2023/11/20 13:00:43;;;;;;;5.72;1.27;;;;;;;;;;6213501;23;20279;-90
2023/11/20 13:03:48;;;;;;;6.57;1.10;;;;;;;;;;6217204;22;20171;-91
2023/11/20 13:06:55;;;;;;;4.45;1.02;;;;;;;;;;6212533;23;20174;-90
2023/11/20 13:10:06;;;;;;;6.07;1.20;;;;;;;;;;6211373;23;20179;-92
2023/11/20 13:13:12;;;;;;;8.00;1.00;;;;;;;;;;6208677;23;20214;-92
2023/11/20 13:19:37;;;;;;;8.10;1.20;;;;;;;;;;6079742;23;20262;-91
2023/11/20 13:22:44;;;;;;;8.57;1.30;;;;;;;;;;6095860;23;20178;-91
2023/11/20 13:25:51;;;;;;;2.28;1.10;;;;;;;;;;6078916;23;20207;-90
2023/11/20 13:29:02;;;;;;;3.28;1.15;;;;;;;;;;6078168;23;20231;-93
2023/11/20 13:32:17;;;;;;;7.28;1.30;;;;;;;;;;6079789;23;20174;-92
2023/11/20 13:35:22;;;;;;;7.03;1.52;;;;;;;;;;6079001;23;20222;-91
2023/11/20 13:38:29;;;;;;;3.72;1.25;;;;;;;;;;6081063;23;20250;-90
2023/11/20 13:41:33;;;;;;;8.52;1.42;;;;;;;;;;6083733;23;20203;-93
2023/11/20 13:44:39;;;;;;;3.95;1.27;;;;;;;;;;6080969;23;20167;-95
2023/11/20 13:47:45;;;;;;;5.13;1.45;;;;;;;;;;6096774;23;20170;-90
2023/11/20 13:50:50;;;;;;;10.43;1.80;;;;;;;;;;6079523;23;20228;-94
2023/11/20 13:53:57;;;;;;;16.55;1.60;;;;;;;;;;6078083;23;20178;-92
2023/11/20 13:57:07;;;;;;;5.35;1.67;;;;;;;;;;6080199;23;20190;-90
2023/11/20 14:00:18;;;;;;;3.63;1.40;;;;;;;;;;6080225;23;20171;-93
2023/11/20 14:03:24;;;;;;;6.63;1.63;;;;;;;;;;6082866;23;20530;-92
2023/11/20 14:06:29;;;;;;;4.13;1.48;;;;;;;;;;6081806;23;20173;-92
2023/11/20 14:09:38;;;;;;;6.82;2.05;;;;;;;;;;6082207;23;20240;-91
2023/11/20 14:12:45;;;;;;;6.25;1.27;;;;;;;;;;6080895;23;20175;-93
2023/11/20 14:15:51;;;;;;;7.70;1.60;;;;;;;;;;6066183;23;20171;-91
2023/11/20 14:18:57;;;;;;;7.18;1.50;;;;;;;;;;6112867;23;20173;-93
2023/11/20 14:22:03;;;;;;;8.15;1.73;;;;;;;;;;6113055;23;20153;-92
2023/11/20 14:34:04;;;;;;;10.02;2.00;;;;;;;;;;6259452;22;20211;-90
2023/11/20 14:37:10;;;;;;;4.57;1.30;;;;;;;;;;6242796;23;20194;-90
2023/11/20 14:40:16;;;;;;;9.10;1.77;;;;;;;;;;6245130;22;20154;-90
2023/11/20 14:43:22;;;;;;;5.13;1.30;;;;;;;;;;6243723;23;20167;-91
2023/11/20 14:46:28;;;;;;;9.15;2.50;;;;;;;;;;6243535;23;20174;-90
2023/11/20 14:49:37;;;;;;;9.88;2.35;;;;;;;;;;6245187;23;20162;-90
2023/11/20 14:52:42;;;;;;;8.40;2.20;;;;;;;;;;6243311;23;20169;-91
2023/11/20 14:55:55;;;;;;;5.55;1.60;;;;;;;;;;6244529;22;20146;-86
2023/11/20 14:59:01;;;;;;;8.30;2.05;;;;;;;;;;6241110;22;20164;-91
2023/11/20 15:02:07;;;;;;;3.80;1.27;;;;;;;;;;6241897;23;20190;-92
2023/11/20 15:05:14;;;;;;;6.47;1.55;;;;;;;;;;6247128;23;20170;-92
2023/11/20 15:08:24;;;;;;;7.70;1.73;;;;;;;;;;6245980;22;20174;-91
2023/11/20 15:11:33;;;;;;;8.07;1.92;;;;;;;;;;6262425;22;20167;-89
2023/11/20 15:14:39;;;;;;;15.73;2.67;;;;;;;;;;6242443;23;20167;-90
2023/11/20 15:17:45;;;;;;;7.53;2.05;;;;;;;;;;6244158;22;20181;-91
2023/11/20 15:20:52;;;;;;;7.28;1.92;;;;;;;;;;6244275;23;20166;-93
2023/11/20 15:27:27;;;;;;;7.88;2.22;;;;;;;;;;6245307;23;20208;-91
2023/11/20 15:33:54;;;;;;;14.23;3.58;;;;;;;;;;6248729;22;20260;-91
2023/11/20 15:37:03;;;;;;;10.40;3.25;;;;;;;;;;6248109;22;20201;-90
2023/11/20 15:40:11;;;;;;;7.57;2.10;;;;;;;;;;6246682;22;20235;-90
2023/11/20 15:43:17;;;;;;;13.88;5.10;;;;;;;;;;6247095;23;20238;-88
2023/11/20 15:49:46;;;;;;;22.70;6.60;;;;;;;;;;6248493;22;20246;-90
2023/11/20 15:52:53;;;;;;;23.98;5.88;;;;;;;;;;6249096;22;20214;-91
2023/11/20 15:56:00;;;;;;;23.35;5.22;;;;;;;;;;6250087;23;20211;-93
2023/11/20 16:02:25;;;;;;;26.98;6.90;;;;;;;;;;6248379;22;20182;-93
2023/11/20 16:05:31;;;;;;;35.55;11.43;;;;;;;;;;6249598;22;20197;-91
2023/11/20 16:12:14;;;;;;;10.13;3.08;;;;;;;;;;6249625;22;20174;-93
2023/11/20 16:18:41;;;;;;;13.93;4.85;;;;;;;;;;6247911;22;20179;-94
2023/11/20 16:21:48;;;;;;;16.48;4.32;;;;;;;;;;6245984;23;20185;-89
2023/11/20 16:25:09;;;;;;;19.90;4.53;;;;;;;;;;6242637;23;20168;-91
2023/11/20 16:28:17;;;;;;;11.48;2.90;;;;;;;;;;6242921;23;20231;-91
2023/11/20 16:31:22;;;;;;;9.85;2.08;;;;;;;;;;6246646;23;20203;-90
2023/11/20 16:37:47;;;;;;;15.40;3.78;;;;;;;;;;6250431;23;20183;-90
2023/11/20 16:44:20;;;;;;;9.80;2.97;;;;;;;;;;6249210;23;20167;-92
2023/11/20 16:47:29;;;;;;;14.93;3.22;;;;;;;;;;6229730;23;20265;-93
2023/11/20 16:50:36;;;;;;;12.38;2.80;;;;;;;;;;6246811;23;20194;-93
2023/11/20 16:53:41;;;;;;;11.70;3.10;;;;;;;;;;6245731;23;20155;-93
2023/11/20 16:56:47;;;;;;;10.18;3.67;;;;;;;;;;6242728;22;20194;-93
2023/11/20 16:59:56;;;;;;;16.83;4.40;;;;;;;;;;6245625;22;20170;-92
2023/11/20 17:03:03;;;;;;;15.90;4.65;;;;;;;;;;6247769;23;20169;-90
2023/11/20 17:09:30;;;;;;;32.80;12.45;;;;;;;;;;6249164;22;20186;-93
2023/11/20 17:12:38;;;;;;;26.52;10.98;;;;;;;;;;6249863;22;20199;-94
2023/11/20 17:15:45;;;;;;;18.65;5.53;;;;;;;;;;6249273;22;20241;-91
2023/11/20 17:18:52;;;;;;;14.10;4.90;;;;;;;;;;6250739;23;20166;-91
2023/11/20 17:21:58;;;;;;;15.05;5.47;;;;;;;;;;6246441;23;20230;-91
2023/11/20 17:25:04;;;;;;;15.18;5.72;;;;;;;;;;6246557;23;20146;-91
2023/11/20 17:28:10;;;;;;;14.15;5.35;;;;;;;;;;6246204;22;20151;-92
2023/11/20 17:31:20;;;;;;;24.08;5.38;;;;;;;;;;6245854;23;20194;-93
2023/11/20 17:34:25;;;;;;;14.55;5.25;;;;;;;;;;6244268;23;20163;-91
2023/11/20 17:37:32;;;;;;;22.25;9.10;;;;;;;;;;6243291;23;20190;-93
2023/11/20 17:40:39;;;;;;;23.20;8.32;;;;;;;;;;6244102;22;20218;-93
2023/11/20 17:43:44;;;;;;;23.25;7.72;;;;;;;;;;6244602;23;20195;-92
2023/11/20 17:46:54;;;;;;;20.88;6.43;;;;;;;;;;6244447;22;20167;-92
2023/11/20 17:50:00;;;;;;;17.27;6.75;;;;;;;;;;6261940;22;20166;-94
2023/11/20 17:53:13;;;;;;;19.00;6.93;;;;;;;;;;6242945;23;20174;-91
2023/11/20 17:59:43;;;;;;;20.70;7.47;;;;;;;;;;6267082;23;20187;-89
2023/11/20 18:02:54;;;;;;;29.38;6.88;;;;;;;;;;6232528;23;20170;-91
2023/11/20 18:06:01;;;;;;;26.30;9.40;;;;;;;;;;6248353;23;20166;-90
2023/11/20 18:09:14;;;;;;;35.25;10.38;;;;;;;;;;6266216;23;20162;-92
2023/11/20 18:19:03;;;;;;;30.27;11.18;;;;;;;;;;6249301;23;20206;-92
2023/11/20 18:25:32;;;;;;;36.45;12.05;;;;;;;;;;6248561;23;20531;-92
2023/11/20 18:28:38;;;;;;;23.38;8.82;;;;;;;;;;6249014;23;20167;-92
2023/11/20 18:35:09;;;;;;;25.45;7.60;;;;;;;;;;6247605;22;20186;-92
2023/11/20 18:41:38;;;;;;;29.40;8.57;;;;;;;;;;6248112;23;20229;-90
2023/11/20 18:45:08;;;;;;;32.47;12.55;;;;;;;;;;6247259;23;20218;-92
2023/11/20 18:52:07;;;;;;;21.70;8.40;;;;;;;;;;6248706;22;20186;-91
2023/11/20 18:55:19;;;;;;;20.80;10.98;;;;;;;;;;6245223;23;20175;-92
2023/11/20 18:58:38;;;;;;;23.15;8.77;;;;;;;;;;6249980;22;20197;-92
2023/11/20 19:01:50;;;;;;;49.08;27.40;;;;;;;;;;6248287;22;20166;-91
2023/11/20 19:11:55;;;;;;;17.63;6.28;;;;;;;;;;6247540;22;20186;-93
2023/11/20 19:34:35;;;;;;;17.92;7.28;;;;;;;;;;6217353;22;20297;-90
2023/11/20 19:38:08;;;;;;;23.85;7.05;;;;;;;;;;6201445;22;20243;-91
2023/11/20 19:41:37;;;;;;;26.97;8.00;;;;;;;;;;6219874;23;20231;-91
2023/11/20 19:44:51;;;;;;;17.33;6.23;;;;;;;;;;6218437;23;20218;-92
2023/11/20 19:57:59;;;;;;;20.17;6.10;;;;;;;;;;6216688;22;20227;-91
2023/11/20 20:01:20;;;;;;;18.97;7.17;;;;;;;;;;6217866;22;20151;-93
2023/11/20 20:04:27;;;;;;;16.43;6.67;;;;;;;;;;6219076;23;20167;-92
2023/11/20 20:07:39;;;;;;;16.10;6.27;;;;;;;;;;6218441;23;20233;-91
2023/11/20 20:14:08;;;;;;;14.93;6.20;;;;;;;;;;6220126;22;20168;-89
2023/11/20 20:17:34;;;;;;;15.80;6.33;;;;;;;;;;6219294;23;20235;-91
2023/11/20 20:24:13;;;;;;;18.57;6.30;;;;;;;;;;6232868;22;20195;-92
2023/11/20 20:34:01;;;;;;;11.07;5.70;;;;;;;;;;6217625;23;20214;-91
2023/11/20 20:47:05;;;;;;;17.00;6.75;;;;;;;;;;6216290;23;20167;-91
2023/11/20 20:50:11;;;;;;;12.20;5.17;;;;;;;;;;6212189;23;20171;-90
2023/11/20 20:53:19;;;;;;;14.73;4.07;;;;;;;;;;6233712;22;20172;-93
2023/11/20 20:56:26;;;;;;;14.10;4.63;;;;;;;;;;6216208;23;20228;-89
2023/11/20 20:59:31;;;;;;;10.87;4.63;;;;;;;;;;6215020;23;20186;-92
2023/11/20 21:02:38;;;;;;;13.67;4.93;;;;;;;;;;6214731;23;20187;-92
2023/11/20 21:05:45;;;;;;;14.23;5.33;;;;;;;;;;6216021;23;20170;-87
2023/11/20 21:08:53;;;;;;;14.13;4.60;;;;;;;;;;6215896;22;20186;-93
2023/11/20 21:12:00;;;;;;;11.60;4.90;;;;;;;;;;6217174;22;20179;-92
2023/11/20 21:15:07;;;;;;;13.77;4.87;;;;;;;;;;6216368;23;20170;-92
2023/11/20 21:18:15;;;;;;;13.80;4.33;;;;;;;;;;6215999;23;20526;-90
2023/11/20 21:21:22;;;;;;;19.13;5.00;;;;;;;;;;6217525;22;20496;-90
2023/11/20 21:24:27;;;;;;;14.10;4.77;;;;;;;;;;6217525;22;20175;-93
2023/11/20 21:27:32;;;;;;;9.27;4.27;;;;;;;;;;6216391;23;20505;-91
2023/11/20 21:30:38;;;;;;;10.73;4.43;;;;;;;;;;6213040;23;20175;-90
2023/11/20 21:33:45;;;;;;;10.07;4.30;;;;;;;;;;6214519;23;20167;-93